sensor_id;sensor_type;location;lat;lon;timestamp;temperature;humidity
19000;DHT22;9633;50.980;13.850;2023-05-07T00:00:24;10.60;99.90
19000;DHT22;9633;50.980;13.850;2023-05-07T00:01:57;10.70;99.90
19000;DHT22;9633;50.980;13.850;2023-05-07T00:03:30;10.70;99.90
19000;DHT22;9633;50.980;13.850;2023-05-07T00:05:05;10.60;99.90
19000;DHT22;9633;50.980;13.850;2023-05-07T00:06:38;10.60;99.90
19000;DHT22;9633;50.980;13.850;2023-05-07T00:08:13;10.60;99.90
19000;DHT22;9633;50.980;13.850;2023-05-07T00:09:46;10.90;99.90
19000;DHT22;9633;50.980;13.850;2023-05-07T00:11:20;10.60;99.90
19000;DHT22;9633;50.980;13.850;2023-05-07T00:12:53;10.60;99.90
19000;DHT22;9633;50.980;13.850;2023-05-07T00:14:25;10.60;99.90
19000;DHT22;9633;50.980;13.850;2023-05-07T00:15:58;10.50;99.90
19000;DHT22;9633;50.980;13.850;2023-05-07T00:17:33;10.60;99.90
19000;DHT22;9633;50.980;13.850;2023-05-07T00:19:05;10.50;99.90
19000;DHT22;9633;50.980;13.850;2023-05-07T00:20:38;10.50;99.90
19000;DHT22;9633;50.980;13.850;2023-05-07T00:22:11;10.50;99.90
19000;DHT22;9633;50.980;13.850;2023-05-07T00:23:45;10.50;99.90
19000;DHT22;9633;50.980;13.850;2023-05-07T00:25:18;10.40;99.90
19000;DHT22;9633;50.980;13.850;2023-05-07T00:26:52;10.40;99.90
19000;DHT22;9633;50.980;13.850;2023-05-07T00:28:25;10.30;99.90
19000;DHT22;9633;50.980;13.850;2023-05-07T00:29:57;10.40;99.90
19000;DHT22;9633;50.980;13.850;2023-05-07T00:31:30;10.50;99.90
19000;DHT22;9633;50.980;13.850;2023-05-07T00:33:02;10.40;99.90
19000;DHT22;9633;50.980;13.850;2023-05-07T00:34:35;10.30;99.90
19000;DHT22;9633;50.980;13.850;2023-05-07T00:36:09;10.30;99.90
19000;DHT22;9633;50.980;13.850;2023-05-07T00:37:42;10.50;99.90
19000;DHT22;9633;50.980;13.850;2023-05-07T00:39:16;10.40;99.90
19000;DHT22;9633;50.980;13.850;2023-05-07T00:40:49;10.40;99.90
19000;DHT22;9633;50.980;13.850;2023-05-07T00:42:23;10.40;99.90
19000;DHT22;9633;50.980;13.850;2023-05-07T00:43:55;10.40;99.90
19000;DHT22;9633;50.980;13.850;2023-05-07T00:45:29;10.30;99.90
19000;DHT22;9633;50.980;13.850;2023-05-07T00:47:03;10.30;99.90
19000;DHT22;9633;50.980;13.850;2023-05-07T00:48:37;10.20;99.90
19000;DHT22;9633;50.980;13.850;2023-05-07T00:50:11;10.20;99.90
19000;DHT22;9633;50.980;13.850;2023-05-07T00:51:45;10.20;99.90
19000;DHT22;9633;50.980;13.850;2023-05-07T00:53:18;10.20;99.90
19000;DHT22;9633;50.980;13.850;2023-05-07T00:54:53;10.30;99.90
19000;DHT22;9633;50.980;13.850;2023-05-07T00:56:27;10.30;99.90
19000;DHT22;9633;50.980;13.850;2023-05-07T00:58:00;10.30;99.90
19000;DHT22;9633;50.980;13.850;2023-05-07T00:59:34;10.40;99.90
19000;DHT22;9633;50.980;13.850;2023-05-07T01:01:07;10.30;99.90
19000;DHT22;9633;50.980;13.850;2023-05-07T01:02:40;10.50;99.90
19000;DHT22;9633;50.980;13.850;2023-05-07T01:04:14;10.50;99.90
19000;DHT22;9633;50.980;13.850;2023-05-07T01:05:48;10.50;99.90
19000;DHT22;9633;50.980;13.850;2023-05-07T01:07:23;10.40;99.90
19000;DHT22;9633;50.980;13.850;2023-05-07T01:08:56;10.40;99.90
19000;DHT22;9633;50.980;13.850;2023-05-07T01:10:31;10.40;99.90
19000;DHT22;9633;50.980;13.850;2023-05-07T01:12:04;10.30;99.90
19000;DHT22;9633;50.980;13.850;2023-05-07T01:13:39;10.30;99.90
19000;DHT22;9633;50.980;13.850;2023-05-07T01:15:13;10.30;99.90
19000;DHT22;9633;50.980;13.850;2023-05-07T01:16:46;10.30;99.90
19000;DHT22;9633;50.980;13.850;2023-05-07T01:18:20;10.20;99.90
19000;DHT22;9633;50.980;13.850;2023-05-07T01:19:53;10.20;99.90
19000;DHT22;9633;50.980;13.850;2023-05-07T01:21:27;10.20;99.90
19000;DHT22;9633;50.980;13.850;2023-05-07T01:23:06;10.20;99.90
19000;DHT22;9633;50.980;13.850;2023-05-07T01:24:40;10.20;99.90
19000;DHT22;9633;50.980;13.850;2023-05-07T01:26:14;10.20;99.90
19000;DHT22;9633;50.980;13.850;2023-05-07T01:27:49;10.20;99.90
19000;DHT22;9633;50.980;13.850;2023-05-07T01:29:23;10.10;99.90
19000;DHT22;9633;50.980;13.850;2023-05-07T01:31:01;10.20;99.90
19000;DHT22;9633;50.980;13.850;2023-05-07T01:32:37;10.20;99.90
19000;DHT22;9633;50.980;13.850;2023-05-07T01:34:13;10.10;99.90
19000;DHT22;9633;50.980;13.850;2023-05-07T01:35:51;10.10;99.90
19000;DHT22;9633;50.980;13.850;2023-05-07T01:37:26;10.10;99.90
19000;DHT22;9633;50.980;13.850;2023-05-07T01:38:59;10.20;99.90
19000;DHT22;9633;50.980;13.850;2023-05-07T01:40:33;10.20;99.90
19000;DHT22;9633;50.980;13.850;2023-05-07T01:42:07;10.20;99.90
19000;DHT22;9633;50.980;13.850;2023-05-07T01:43:40;10.20;99.90
19000;DHT22;9633;50.980;13.850;2023-05-07T01:45:14;10.30;99.90
19000;DHT22;9633;50.980;13.850;2023-05-07T01:46:47;10.20;99.90
19000;DHT22;9633;50.980;13.850;2023-05-07T01:48:21;10.20;99.90
19000;DHT22;9633;50.980;13.850;2023-05-07T01:49:53;10.20;99.90
19000;DHT22;9633;50.980;13.850;2023-05-07T01:51:27;10.20;99.90
19000;DHT22;9633;50.980;13.850;2023-05-07T01:53:01;10.10;99.90
19000;DHT22;9633;50.980;13.850;2023-05-07T01:54:36;10.10;99.90
19000;DHT22;9633;50.980;13.850;2023-05-07T01:56:08;10.10;99.90
19000;DHT22;9633;50.980;13.850;2023-05-07T01:57:43;10.10;99.90
19000;DHT22;9633;50.980;13.850;2023-05-07T01:59:16;10.10;99.90
19000;DHT22;9633;50.980;13.850;2023-05-07T02:00:49;10.10;99.90
19000;DHT22;9633;50.980;13.850;2023-05-07T02:02:22;10.10;99.90
19000;DHT22;9633;50.980;13.850;2023-05-07T02:03:56;10.10;99.90
19000;DHT22;9633;50.980;13.850;2023-05-07T02:05:31;10.10;99.90
19000;DHT22;9633;50.980;13.850;2023-05-07T02:07:09;10.20;99.90
19000;DHT22;9633;50.980;13.850;2023-05-07T02:08:42;10.20;99.90
19000;DHT22;9633;50.980;13.850;2023-05-07T02:10:17;10.20;99.90
19000;DHT22;9633;50.980;13.850;2023-05-07T02:11:51;10.20;99.90
19000;DHT22;9633;50.980;13.850;2023-05-07T02:13:26;10.10;99.90
19000;DHT22;9633;50.980;13.850;2023-05-07T02:14:58;10.20;99.90
19000;DHT22;9633;50.980;13.850;2023-05-07T02:16:32;10.10;99.90
19000;DHT22;9633;50.980;13.850;2023-05-07T02:18:07;10.10;99.90
19000;DHT22;9633;50.980;13.850;2023-05-07T02:19:41;10.10;99.90
19000;DHT22;9633;50.980;13.850;2023-05-07T02:21:14;10.00;99.90
19000;DHT22;9633;50.980;13.850;2023-05-07T02:22:47;10.10;99.90
19000;DHT22;9633;50.980;13.850;2023-05-07T02:24:20;10.10;99.90
19000;DHT22;9633;50.980;13.850;2023-05-07T02:25:54;10.10;99.90
19000;DHT22;9633;50.980;13.850;2023-05-07T02:27:27;10.10;99.90
19000;DHT22;9633;50.980;13.850;2023-05-07T02:29:00;10.20;99.90
19000;DHT22;9633;50.980;13.850;2023-05-07T02:30:32;10.20;99.90
19000;DHT22;9633;50.980;13.850;2023-05-07T02:32:05;10.20;99.90
19000;DHT22;9633;50.980;13.850;2023-05-07T02:33:39;10.20;99.90
19000;DHT22;9633;50.980;13.850;2023-05-07T02:35:13;10.20;99.90
19000;DHT22;9633;50.980;13.850;2023-05-07T02:36:47;10.20;99.90
19000;DHT22;9633;50.980;13.850;2023-05-07T02:38:23;10.10;99.90
19000;DHT22;9633;50.980;13.850;2023-05-07T02:39:56;10.10;99.90
19000;DHT22;9633;50.980;13.850;2023-05-07T02:41:30;10.20;99.90
19000;DHT22;9633;50.980;13.850;2023-05-07T02:43:03;10.10;99.90
19000;DHT22;9633;50.980;13.850;2023-05-07T02:44:37;10.10;99.90
19000;DHT22;9633;50.980;13.850;2023-05-07T02:46:10;10.10;99.90
19000;DHT22;9633;50.980;13.850;2023-05-07T02:47:46;10.00;99.90
19000;DHT22;9633;50.980;13.850;2023-05-07T02:49:20;10.10;99.90
19000;DHT22;9633;50.980;13.850;2023-05-07T02:50:53;10.10;99.90
19000;DHT22;9633;50.980;13.850;2023-05-07T02:52:25;10.10;99.90
19000;DHT22;9633;50.980;13.850;2023-05-07T02:53:58;10.20;99.90
19000;DHT22;9633;50.980;13.850;2023-05-07T02:55:33;10.20;99.90
19000;DHT22;9633;50.980;13.850;2023-05-07T02:57:08;10.20;99.90
19000;DHT22;9633;50.980;13.850;2023-05-07T02:58:41;10.10;99.90
19000;DHT22;9633;50.980;13.850;2023-05-07T03:00:16;10.20;99.90
19000;DHT22;9633;50.980;13.850;2023-05-07T03:02:06;10.10;99.90
19000;DHT22;9633;50.980;13.850;2023-05-07T03:03:39;10.10;99.90
19000;DHT22;9633;50.980;13.850;2023-05-07T03:05:12;10.10;99.90
19000;DHT22;9633;50.980;13.850;2023-05-07T03:06:46;10.10;99.90
19000;DHT22;9633;50.980;13.850;2023-05-07T03:08:19;10.10;99.90
19000;DHT22;9633;50.980;13.850;2023-05-07T03:09:52;10.10;99.90
19000;DHT22;9633;50.980;13.850;2023-05-07T03:11:25;10.10;99.90
19000;DHT22;9633;50.980;13.850;2023-05-07T03:13:00;10.00;99.90
19000;DHT22;9633;50.980;13.850;2023-05-07T03:14:34;10.10;99.90
19000;DHT22;9633;50.980;13.850;2023-05-07T03:16:07;10.00;99.90
19000;DHT22;9633;50.980;13.850;2023-05-07T03:17:40;10.10;99.90
19000;DHT22;9633;50.980;13.850;2023-05-07T03:19:12;10.10;99.90
19000;DHT22;9633;50.980;13.850;2023-05-07T03:20:46;10.10;99.90
19000;DHT22;9633;50.980;13.850;2023-05-07T03:22:20;10.00;99.90
19000;DHT22;9633;50.980;13.850;2023-05-07T03:23:53;10.00;99.90
19000;DHT22;9633;50.980;13.850;2023-05-07T03:25:27;10.00;99.90
19000;DHT22;9633;50.980;13.850;2023-05-07T03:26:59;9.90;99.90
19000;DHT22;9633;50.980;13.850;2023-05-07T03:28:34;10.00;99.90
19000;DHT22;9633;50.980;13.850;2023-05-07T03:30:11;10.00;99.90
19000;DHT22;9633;50.980;13.850;2023-05-07T03:31:44;9.90;99.90
19000;DHT22;9633;50.980;13.850;2023-05-07T03:33:18;9.90;99.90
19000;DHT22;9633;50.980;13.850;2023-05-07T03:34:50;9.90;99.90
19000;DHT22;9633;50.980;13.850;2023-05-07T03:36:24;10.00;99.90
19000;DHT22;9633;50.980;13.850;2023-05-07T03:37:59;9.90;99.90
19000;DHT22;9633;50.980;13.850;2023-05-07T03:39:35;10.00;99.90
19000;DHT22;9633;50.980;13.850;2023-05-07T03:41:08;9.90;99.90
19000;DHT22;9633;50.980;13.850;2023-05-07T03:42:41;9.90;99.90
19000;DHT22;9633;50.980;13.850;2023-05-07T03:44:16;10.00;99.90
19000;DHT22;9633;50.980;13.850;2023-05-07T03:45:50;9.90;99.90
19000;DHT22;9633;50.980;13.850;2023-05-07T03:47:27;9.90;99.90
19000;DHT22;9633;50.980;13.850;2023-05-07T03:49:00;9.90;99.90
19000;DHT22;9633;50.980;13.850;2023-05-07T03:50:34;9.90;99.90
19000;DHT22;9633;50.980;13.850;2023-05-07T03:52:07;9.80;99.90
19000;DHT22;9633;50.980;13.850;2023-05-07T03:53:40;9.80;99.90
19000;DHT22;9633;50.980;13.850;2023-05-07T03:55:13;9.80;99.90
19000;DHT22;9633;50.980;13.850;2023-05-07T03:56:52;9.70;99.90
19000;DHT22;9633;50.980;13.850;2023-05-07T03:58:25;9.70;99.90
19000;DHT22;9633;50.980;13.850;2023-05-07T04:00:04;9.70;99.90
19000;DHT22;9633;50.980;13.850;2023-05-07T04:01:51;9.60;99.90
19000;DHT22;9633;50.980;13.850;2023-05-07T04:03:27;9.60;99.90
19000;DHT22;9633;50.980;13.850;2023-05-07T04:05:03;9.60;99.90
19000;DHT22;9633;50.980;13.850;2023-05-07T04:06:36;9.50;99.90
19000;DHT22;9633;50.980;13.850;2023-05-07T04:08:10;9.60;99.90
19000;DHT22;9633;50.980;13.850;2023-05-07T04:09:46;9.60;99.90
19000;DHT22;9633;50.980;13.850;2023-05-07T04:11:19;9.60;99.90
19000;DHT22;9633;50.980;13.850;2023-05-07T04:12:52;9.50;99.90
19000;DHT22;9633;50.980;13.850;2023-05-07T04:14:26;9.50;99.90
19000;DHT22;9633;50.980;13.850;2023-05-07T04:16:02;9.50;99.90
19000;DHT22;9633;50.980;13.850;2023-05-07T04:17:34;9.40;99.90
19000;DHT22;9633;50.980;13.850;2023-05-07T04:19:07;9.50;99.90
19000;DHT22;9633;50.980;13.850;2023-05-07T04:20:41;9.60;99.90
19000;DHT22;9633;50.980;13.850;2023-05-07T04:22:17;9.60;99.90
19000;DHT22;9633;50.980;13.850;2023-05-07T04:23:50;9.60;99.90
19000;DHT22;9633;50.980;13.850;2023-05-07T04:25:24;9.60;99.90
19000;DHT22;9633;50.980;13.850;2023-05-07T04:27:02;9.60;99.90
19000;DHT22;9633;50.980;13.850;2023-05-07T04:28:36;9.50;99.90
19000;DHT22;9633;50.980;13.850;2023-05-07T04:30:09;9.40;99.90
19000;DHT22;9633;50.980;13.850;2023-05-07T04:31:44;9.50;99.90
19000;DHT22;9633;50.980;13.850;2023-05-07T04:33:18;9.50;99.90
19000;DHT22;9633;50.980;13.850;2023-05-07T04:34:53;9.50;99.90
19000;DHT22;9633;50.980;13.850;2023-05-07T04:36:27;9.60;99.90
19000;DHT22;9633;50.980;13.850;2023-05-07T04:38:05;9.50;99.90
19000;DHT22;9633;50.980;13.850;2023-05-07T04:39:37;9.50;99.90
19000;DHT22;9633;50.980;13.850;2023-05-07T04:41:12;9.60;99.90
19000;DHT22;9633;50.980;13.850;2023-05-07T04:42:47;9.70;99.90
19000;DHT22;9633;50.980;13.850;2023-05-07T04:44:21;9.70;99.90
19000;DHT22;9633;50.980;13.850;2023-05-07T04:45:54;9.80;99.90
19000;DHT22;9633;50.980;13.850;2023-05-07T04:47:30;9.80;99.90
19000;DHT22;9633;50.980;13.850;2023-05-07T04:49:05;9.80;99.90
19000;DHT22;9633;50.980;13.850;2023-05-07T04:50:38;9.80;99.90
19000;DHT22;9633;50.980;13.850;2023-05-07T04:52:13;9.80;99.90
19000;DHT22;9633;50.980;13.850;2023-05-07T04:53:47;9.70;99.90
19000;DHT22;9633;50.980;13.850;2023-05-07T04:55:20;9.80;99.90
19000;DHT22;9633;50.980;13.850;2023-05-07T04:56:54;9.70;99.90
19000;DHT22;9633;50.980;13.850;2023-05-07T04:58:27;9.80;99.90
19000;DHT22;9633;50.980;13.850;2023-05-07T04:59:59;9.80;99.90
19000;DHT22;9633;50.980;13.850;2023-05-07T05:01:35;9.80;99.90
19000;DHT22;9633;50.980;13.850;2023-05-07T05:03:12;9.80;99.90
19000;DHT22;9633;50.980;13.850;2023-05-07T05:04:44;9.90;99.90
19000;DHT22;9633;50.980;13.850;2023-05-07T05:06:18;10.00;99.90
19000;DHT22;9633;50.980;13.850;2023-05-07T05:07:51;9.90;99.90
19000;DHT22;9633;50.980;13.850;2023-05-07T05:09:24;9.90;99.90
19000;DHT22;9633;50.980;13.850;2023-05-07T05:10:57;10.00;99.90
19000;DHT22;9633;50.980;13.850;2023-05-07T05:12:30;10.00;99.90
19000;DHT22;9633;50.980;13.850;2023-05-07T05:14:05;10.10;99.90
19000;DHT22;9633;50.980;13.850;2023-05-07T05:15:38;10.00;99.90
19000;DHT22;9633;50.980;13.850;2023-05-07T05:17:10;10.00;99.90
19000;DHT22;9633;50.980;13.850;2023-05-07T05:18:45;10.00;99.90
19000;DHT22;9633;50.980;13.850;2023-05-07T05:20:21;10.00;99.90
19000;DHT22;9633;50.980;13.850;2023-05-07T05:21:54;10.00;99.90
19000;DHT22;9633;50.980;13.850;2023-05-07T05:23:28;10.00;99.90
19000;DHT22;9633;50.980;13.850;2023-05-07T05:25:01;10.10;99.90
19000;DHT22;9633;50.980;13.850;2023-05-07T05:26:34;10.10;99.90
19000;DHT22;9633;50.980;13.850;2023-05-07T05:28:07;10.30;99.90
19000;DHT22;9633;50.980;13.850;2023-05-07T05:29:41;10.30;99.90
19000;DHT22;9633;50.980;13.850;2023-05-07T05:31:14;10.20;99.90
19000;DHT22;9633;50.980;13.850;2023-05-07T05:32:47;10.20;99.90
19000;DHT22;9633;50.980;13.850;2023-05-07T05:34:22;10.20;99.90
19000;DHT22;9633;50.980;13.850;2023-05-07T05:35:55;10.10;99.90
19000;DHT22;9633;50.980;13.850;2023-05-07T05:37:28;10.30;99.90
19000;DHT22;9633;50.980;13.850;2023-05-07T05:39:03;10.40;99.90
19000;DHT22;9633;50.980;13.850;2023-05-07T05:40:37;10.50;99.90
19000;DHT22;9633;50.980;13.850;2023-05-07T05:42:11;10.70;99.90
19000;DHT22;9633;50.980;13.850;2023-05-07T05:43:43;10.60;99.90
19000;DHT22;9633;50.980;13.850;2023-05-07T05:45:16;10.50;99.90
19000;DHT22;9633;50.980;13.850;2023-05-07T05:46:50;10.40;99.90
19000;DHT22;9633;50.980;13.850;2023-05-07T05:48:24;10.30;99.90
19000;DHT22;9633;50.980;13.850;2023-05-07T05:49:58;10.20;99.90
19000;DHT22;9633;50.980;13.850;2023-05-07T05:51:31;10.20;99.90
19000;DHT22;9633;50.980;13.850;2023-05-07T05:53:05;10.20;99.90
19000;DHT22;9633;50.980;13.850;2023-05-07T05:54:38;10.20;99.90
19000;DHT22;9633;50.980;13.850;2023-05-07T05:56:11;10.20;99.90
19000;DHT22;9633;50.980;13.850;2023-05-07T05:57:45;10.20;99.90
19000;DHT22;9633;50.980;13.850;2023-05-07T05:59:20;10.10;99.90
19000;DHT22;9633;50.980;13.850;2023-05-07T06:00:53;10.10;99.90
19000;DHT22;9633;50.980;13.850;2023-05-07T06:02:29;10.00;99.90
19000;DHT22;9633;50.980;13.850;2023-05-07T06:04:03;10.00;99.90
19000;DHT22;9633;50.980;13.850;2023-05-07T06:05:38;10.00;99.90
19000;DHT22;9633;50.980;13.850;2023-05-07T06:07:10;10.10;99.90
19000;DHT22;9633;50.980;13.850;2023-05-07T06:08:43;10.00;99.90
19000;DHT22;9633;50.980;13.850;2023-05-07T06:10:20;10.10;99.90
19000;DHT22;9633;50.980;13.850;2023-05-07T06:11:53;10.20;99.90
19000;DHT22;9633;50.980;13.850;2023-05-07T06:13:28;10.20;99.90
19000;DHT22;9633;50.980;13.850;2023-05-07T06:15:02;10.30;99.90
19000;DHT22;9633;50.980;13.850;2023-05-07T06:16:35;10.30;99.90
19000;DHT22;9633;50.980;13.850;2023-05-07T06:18:11;10.30;99.90
19000;DHT22;9633;50.980;13.850;2023-05-07T06:19:45;10.20;99.90
19000;DHT22;9633;50.980;13.850;2023-05-07T06:21:22;10.30;99.90
19000;DHT22;9633;50.980;13.850;2023-05-07T06:22:55;10.40;99.90
19000;DHT22;9633;50.980;13.850;2023-05-07T06:24:28;10.30;99.90
19000;DHT22;9633;50.980;13.850;2023-05-07T06:26:01;10.20;99.90
19000;DHT22;9633;50.980;13.850;2023-05-07T06:27:39;10.30;99.90
19000;DHT22;9633;50.980;13.850;2023-05-07T06:29:12;10.30;99.90
19000;DHT22;9633;50.980;13.850;2023-05-07T06:30:47;10.30;99.90
19000;DHT22;9633;50.980;13.850;2023-05-07T06:32:22;10.30;99.90
19000;DHT22;9633;50.980;13.850;2023-05-07T06:33:56;10.50;99.90
19000;DHT22;9633;50.980;13.850;2023-05-07T06:35:35;10.50;99.90
19000;DHT22;9633;50.980;13.850;2023-05-07T06:37:10;10.40;99.90
19000;DHT22;9633;50.980;13.850;2023-05-07T06:38:55;10.40;99.90
19000;DHT22;9633;50.980;13.850;2023-05-07T06:40:28;10.40;99.90
19000;DHT22;9633;50.980;13.850;2023-05-07T06:42:04;10.80;99.90
19000;DHT22;9633;50.980;13.850;2023-05-07T06:43:38;10.50;99.90
19000;DHT22;9633;50.980;13.850;2023-05-07T06:45:37;10.70;99.90
19000;DHT22;9633;50.980;13.850;2023-05-07T06:47:12;10.80;99.90
19000;DHT22;9633;50.980;13.850;2023-05-07T06:48:49;10.70;99.90
19000;DHT22;9633;50.980;13.850;2023-05-07T06:50:24;10.90;99.90
19000;DHT22;9633;50.980;13.850;2023-05-07T06:52:01;10.90;99.90
19000;DHT22;9633;50.980;13.850;2023-05-07T06:53:35;10.90;99.90
19000;DHT22;9633;50.980;13.850;2023-05-07T06:55:09;10.90;99.90
19000;DHT22;9633;50.980;13.850;2023-05-07T06:56:43;10.90;99.90
19000;DHT22;9633;50.980;13.850;2023-05-07T06:58:16;10.80;99.90
19000;DHT22;9633;50.980;13.850;2023-05-07T06:59:49;10.90;99.90
19000;DHT22;9633;50.980;13.850;2023-05-07T07:01:23;11.10;99.90
19000;DHT22;9633;50.980;13.850;2023-05-07T07:02:56;11.20;99.90
19000;DHT22;9633;50.980;13.850;2023-05-07T07:04:32;11.20;99.90
19000;DHT22;9633;50.980;13.850;2023-05-07T07:06:09;11.10;99.90
19000;DHT22;9633;50.980;13.850;2023-05-07T07:07:43;11.10;99.90
19000;DHT22;9633;50.980;13.850;2023-05-07T07:09:17;11.10;99.90
19000;DHT22;9633;50.980;13.850;2023-05-07T07:10:53;11.00;99.90
19000;DHT22;9633;50.980;13.850;2023-05-07T07:12:26;10.90;99.90
19000;DHT22;9633;50.980;13.850;2023-05-07T07:14:00;11.00;99.90
19000;DHT22;9633;50.980;13.850;2023-05-07T07:15:36;11.10;99.90
19000;DHT22;9633;50.980;13.850;2023-05-07T07:17:09;11.10;99.90
19000;DHT22;9633;50.980;13.850;2023-05-07T07:18:42;10.90;99.90
19000;DHT22;9633;50.980;13.850;2023-05-07T07:20:15;10.90;99.90
19000;DHT22;9633;50.980;13.850;2023-05-07T07:21:49;11.00;99.90
19000;DHT22;9633;50.980;13.850;2023-05-07T07:23:23;11.00;99.90
19000;DHT22;9633;50.980;13.850;2023-05-07T07:24:58;11.30;99.90
19000;DHT22;9633;50.980;13.850;2023-05-07T07:26:31;11.30;99.90
19000;DHT22;9633;50.980;13.850;2023-05-07T07:28:05;10.90;99.90
19000;DHT22;9633;50.980;13.850;2023-05-07T07:29:38;10.90;99.90
19000;DHT22;9633;50.980;13.850;2023-05-07T07:31:12;11.00;99.90
19000;DHT22;9633;50.980;13.850;2023-05-07T07:32:45;11.20;99.90
19000;DHT22;9633;50.980;13.850;2023-05-07T07:34:19;10.90;99.90
19000;DHT22;9633;50.980;13.850;2023-05-07T07:35:55;11.10;99.90
19000;DHT22;9633;50.980;13.850;2023-05-07T07:37:28;11.20;99.90
19000;DHT22;9633;50.980;13.850;2023-05-07T07:39:02;11.30;99.90
19000;DHT22;9633;50.980;13.850;2023-05-07T07:40:36;11.40;99.90
19000;DHT22;9633;50.980;13.850;2023-05-07T07:42:11;11.40;99.90
19000;DHT22;9633;50.980;13.850;2023-05-07T07:43:43;11.40;99.90
19000;DHT22;9633;50.980;13.850;2023-05-07T07:45:22;11.20;99.90
19000;DHT22;9633;50.980;13.850;2023-05-07T07:46:56;11.30;99.90
19000;DHT22;9633;50.980;13.850;2023-05-07T07:48:31;11.30;99.90
19000;DHT22;9633;50.980;13.850;2023-05-07T07:50:05;11.20;99.90
19000;DHT22;9633;50.980;13.850;2023-05-07T07:51:38;11.40;99.90
19000;DHT22;9633;50.980;13.850;2023-05-07T07:53:11;11.30;99.90
19000;DHT22;9633;50.980;13.850;2023-05-07T07:54:45;11.30;99.90
19000;DHT22;9633;50.980;13.850;2023-05-07T07:56:19;11.20;99.90
19000;DHT22;9633;50.980;13.850;2023-05-07T07:57:53;11.00;99.90
19000;DHT22;9633;50.980;13.850;2023-05-07T07:59:27;10.90;99.90
19000;DHT22;9633;50.980;13.850;2023-05-07T08:01:00;10.90;99.90
19000;DHT22;9633;50.980;13.850;2023-05-07T08:02:33;10.80;99.90
19000;DHT22;9633;50.980;13.850;2023-05-07T08:04:06;11.00;99.90
19000;DHT22;9633;50.980;13.850;2023-05-07T08:05:43;11.00;99.90
19000;DHT22;9633;50.980;13.850;2023-05-07T08:07:16;10.90;99.90
19000;DHT22;9633;50.980;13.850;2023-05-07T08:08:53;10.90;99.90
19000;DHT22;9633;50.980;13.850;2023-05-07T08:10:27;11.00;99.90
19000;DHT22;9633;50.980;13.850;2023-05-07T08:12:08;11.00;99.90
19000;DHT22;9633;50.980;13.850;2023-05-07T08:13:43;11.00;99.90
19000;DHT22;9633;50.980;13.850;2023-05-07T08:15:17;11.00;99.90
19000;DHT22;9633;50.980;13.850;2023-05-07T08:16:50;11.00;99.90
19000;DHT22;9633;50.980;13.850;2023-05-07T08:18:25;11.10;99.90
19000;DHT22;9633;50.980;13.850;2023-05-07T08:20:01;11.10;99.90
19000;DHT22;9633;50.980;13.850;2023-05-07T08:21:34;11.20;99.90
19000;DHT22;9633;50.980;13.850;2023-05-07T08:23:08;11.10;99.90
19000;DHT22;9633;50.980;13.850;2023-05-07T08:24:42;11.10;99.90
19000;DHT22;9633;50.980;13.850;2023-05-07T08:26:17;11.00;99.90
19000;DHT22;9633;50.980;13.850;2023-05-07T08:27:51;11.00;99.90
19000;DHT22;9633;50.980;13.850;2023-05-07T08:29:24;11.00;99.90
19000;DHT22;9633;50.980;13.850;2023-05-07T08:30:57;11.00;99.90
19000;DHT22;9633;50.980;13.850;2023-05-07T08:32:35;11.10;99.90
19000;DHT22;9633;50.980;13.850;2023-05-07T08:34:08;11.10;99.90
19000;DHT22;9633;50.980;13.850;2023-05-07T08:35:45;11.10;99.90
19000;DHT22;9633;50.980;13.850;2023-05-07T08:37:20;11.20;99.90
19000;DHT22;9633;50.980;13.850;2023-05-07T08:38:53;11.20;99.90
19000;DHT22;9633;50.980;13.850;2023-05-07T08:40:26;11.30;99.90
19000;DHT22;9633;50.980;13.850;2023-05-07T08:42:04;11.20;99.90
19000;DHT22;9633;50.980;13.850;2023-05-07T08:43:41;11.30;99.90
19000;DHT22;9633;50.980;13.850;2023-05-07T08:45:15;11.40;99.90
19000;DHT22;9633;50.980;13.850;2023-05-07T08:46:50;11.50;99.90
19000;DHT22;9633;50.980;13.850;2023-05-07T08:48:27;11.50;99.90
19000;DHT22;9633;50.980;13.850;2023-05-07T08:50:10;11.60;99.90
19000;DHT22;9633;50.980;13.850;2023-05-07T08:51:44;11.60;99.90
19000;DHT22;9633;50.980;13.850;2023-05-07T08:53:18;11.80;99.90
19000;DHT22;9633;50.980;13.850;2023-05-07T08:54:53;12.00;99.90
19000;DHT22;9633;50.980;13.850;2023-05-07T08:56:28;12.10;99.90
19000;DHT22;9633;50.980;13.850;2023-05-07T08:58:01;12.20;99.90
19000;DHT22;9633;50.980;13.850;2023-05-07T08:59:37;12.20;99.90
19000;DHT22;9633;50.980;13.850;2023-05-07T09:01:13;12.10;99.90
19000;DHT22;9633;50.980;13.850;2023-05-07T09:02:48;12.10;99.90
19000;DHT22;9633;50.980;13.850;2023-05-07T09:04:21;12.00;99.90
19000;DHT22;9633;50.980;13.850;2023-05-07T09:05:55;12.10;99.90
19000;DHT22;9633;50.980;13.850;2023-05-07T09:07:30;11.90;99.90
19000;DHT22;9633;50.980;13.850;2023-05-07T09:09:04;11.80;99.90
19000;DHT22;9633;50.980;13.850;2023-05-07T09:10:38;11.90;99.90
19000;DHT22;9633;50.980;13.850;2023-05-07T09:12:12;11.80;99.90
19000;DHT22;9633;50.980;13.850;2023-05-07T09:13:45;11.80;99.90
19000;DHT22;9633;50.980;13.850;2023-05-07T09:15:20;11.70;99.90
19000;DHT22;9633;50.980;13.850;2023-05-07T09:16:53;11.80;99.90
19000;DHT22;9633;50.980;13.850;2023-05-07T09:18:27;11.70;99.90
19000;DHT22;9633;50.980;13.850;2023-05-07T09:20:02;11.70;99.90
19000;DHT22;9633;50.980;13.850;2023-05-07T09:21:38;11.80;99.90
19000;DHT22;9633;50.980;13.850;2023-05-07T09:23:14;11.90;99.90
19000;DHT22;9633;50.980;13.850;2023-05-07T09:24:48;12.00;99.90
19000;DHT22;9633;50.980;13.850;2023-05-07T09:26:24;12.30;99.90
19000;DHT22;9633;50.980;13.850;2023-05-07T09:28:00;12.60;99.90
19000;DHT22;9633;50.980;13.850;2023-05-07T09:29:33;12.70;98.80
19000;DHT22;9633;50.980;13.850;2023-05-07T09:31:11;12.70;99.90
19000;DHT22;9633;50.980;13.850;2023-05-07T09:32:44;12.70;99.90
19000;DHT22;9633;50.980;13.850;2023-05-07T09:34:25;12.50;99.90
19000;DHT22;9633;50.980;13.850;2023-05-07T09:36:02;12.50;99.90
19000;DHT22;9633;50.980;13.850;2023-05-07T09:37:37;12.40;99.90
19000;DHT22;9633;50.980;13.850;2023-05-07T09:39:10;12.30;99.90
19000;DHT22;9633;50.980;13.850;2023-05-07T09:40:45;12.40;99.90
19000;DHT22;9633;50.980;13.850;2023-05-07T09:42:23;12.50;99.90
19000;DHT22;9633;50.980;13.850;2023-05-07T09:43:58;12.80;99.90
19000;DHT22;9633;50.980;13.850;2023-05-07T09:45:37;13.20;99.90
19000;DHT22;9633;50.980;13.850;2023-05-07T09:47:18;13.40;94.70
19000;DHT22;9633;50.980;13.850;2023-05-07T09:48:57;13.30;90.40
19000;DHT22;9633;50.980;13.850;2023-05-07T09:50:35;13.20;89.80
19000;DHT22;9633;50.980;13.850;2023-05-07T09:52:09;13.20;91.90
19000;DHT22;9633;50.980;13.850;2023-05-07T09:53:48;13.30;90.60
19000;DHT22;9633;50.980;13.850;2023-05-07T09:55:23;13.50;82.60
19000;DHT22;9633;50.980;13.850;2023-05-07T09:56:57;13.70;84.60